createdAt,value
2022-08-27T00:02:13.987Z,94028.00
2022-08-27T00:04:41.610Z,94021.00
2022-08-27T00:07:11.534Z,94027.00
2022-08-27T00:09:42.954Z,94021.00
2022-08-27T00:12:12.789Z,94023.00
2022-08-27T00:14:39.910Z,94024.00
2022-08-27T00:17:08.093Z,94019.00
2022-08-27T00:19:39.224Z,94021.00
2022-08-27T00:22:08.476Z,94011.00
2022-08-27T00:24:42.084Z,94021.00
2022-08-27T00:27:18.925Z,94018.00
2022-08-27T00:29:49.655Z,94016.00
2022-08-27T00:32:17.530Z,94018.00
2022-08-27T00:34:44.405Z,94016.00
2022-08-27T00:37:11.596Z,94012.00
2022-08-27T00:39:40.982Z,94009.00
2022-08-27T00:42:10.232Z,94013.00
2022-08-27T00:44:38.774Z,94012.00
2022-08-27T00:47:15.650Z,94016.00
2022-08-27T00:49:51.322Z,94011.00
2022-08-27T00:52:33.720Z,94002.00
2022-08-27T00:55:10.387Z,94009.00
2022-08-27T00:57:41.000Z,94008.00
2022-08-27T01:00:13.281Z,94007.00
2022-08-27T01:02:42.079Z,94008.00
2022-08-27T01:05:17.917Z,94009.00
2022-08-27T01:07:52.591Z,94005.00
2022-08-27T01:10:25.751Z,94001.00
2022-08-27T01:12:54.495Z,94003.00
2022-08-27T01:15:24.210Z,94003.00
2022-08-27T01:17:51.795Z,93995.00
2022-08-27T01:20:30.468Z,93999.00
2022-08-27T01:23:27.263Z,93998.00
2022-08-27T01:25:54.477Z,93993.00
2022-08-27T01:28:29.187Z,93992.00
2022-08-27T01:31:05.126Z,93994.00
2022-08-27T01:33:34.479Z,93999.00
2022-08-27T01:36:01.608Z,94001.00
2022-08-27T01:38:31.096Z,94000.00
2022-08-27T01:41:04.402Z,93994.00
2022-08-27T01:43:34.735Z,93992.00
2022-08-27T01:46:04.822Z,93985.00
2022-08-27T01:48:34.750Z,93987.00
2022-08-27T01:51:02.350Z,93993.00
2022-08-27T01:53:32.297Z,93986.00
2022-08-27T01:55:59.469Z,93987.00
2022-08-27T01:58:30.401Z,93990.00
2022-08-27T02:01:12.368Z,93976.00
2022-08-27T02:03:41.357Z,93970.00
2022-08-27T02:06:12.280Z,93967.00
2022-08-27T02:08:41.522Z,93964.00
2022-08-27T02:11:11.329Z,93963.00
2022-08-27T02:13:39.231Z,93964.00
2022-08-27T02:16:09.113Z,93970.00
2022-08-27T02:18:41.662Z,93967.00
2022-08-27T02:21:10.364Z,93957.00
2022-08-27T02:23:42.042Z,93964.00
2022-08-27T02:26:08.931Z,93968.00
2022-08-27T02:28:36.023Z,93968.00
2022-08-27T02:31:04.025Z,93966.00
2022-08-27T02:33:32.931Z,93962.00
2022-08-27T02:36:06.067Z,93962.00
2022-08-27T02:38:38.441Z,93955.00
2022-08-27T02:41:05.437Z,93959.00
2022-08-27T02:43:32.621Z,93958.00
2022-08-27T02:46:03.892Z,93961.00
2022-08-27T02:48:33.713Z,93951.00
2022-08-27T02:51:00.681Z,93958.00
2022-08-27T02:53:28.444Z,93959.00
2022-08-27T02:55:57.888Z,93956.00
2022-08-27T02:58:25.039Z,93946.00
2022-08-27T03:00:54.683Z,93946.00
2022-08-27T03:03:21.648Z,93948.00
2022-08-27T03:05:48.581Z,93944.00
2022-08-27T03:08:15.645Z,93945.00
2022-08-27T03:10:42.550Z,93946.00
2022-08-27T03:13:09.857Z,93944.00
2022-08-27T03:15:36.829Z,93944.00
2022-08-27T03:18:18.239Z,93946.00
2022-08-27T03:20:51.796Z,93943.00
2022-08-27T03:23:22.519Z,93944.00
2022-08-27T03:25:55.163Z,93934.00
2022-08-27T03:28:25.977Z,93940.00
2022-08-27T03:31:01.262Z,93946.00
2022-08-27T03:33:31.954Z,93939.00
2022-08-27T03:36:01.684Z,93943.00
2022-08-27T03:38:28.697Z,93937.00
2022-08-27T03:40:58.357Z,93931.00
2022-08-27T03:43:25.864Z,93933.00
2022-08-27T03:46:01.651Z,93934.00
2022-08-27T03:48:31.991Z,93938.00
2022-08-27T03:50:59.273Z,93932.00
2022-08-27T03:53:26.305Z,93934.00
2022-08-27T03:55:55.453Z,93930.00
2022-08-27T03:58:24.955Z,93925.00
2022-08-27T04:00:56.406Z,93923.00
2022-08-27T04:03:23.771Z,93916.00
2022-08-27T04:05:55.579Z,93915.00
2022-08-27T04:08:24.809Z,93925.00
2022-08-27T04:10:53.393Z,93921.00
2022-08-27T04:13:23.321Z,93931.00
2022-08-27T04:15:52.925Z,93927.00
2022-08-27T04:18:19.911Z,93920.00
2022-08-27T04:20:49.061Z,93916.00
2022-08-27T04:23:25.308Z,93921.00
2022-08-27T04:25:56.704Z,93927.00
2022-08-27T04:28:24.350Z,93926.00
2022-08-27T04:30:51.254Z,93925.00
2022-08-27T04:33:18.217Z,93923.00
2022-08-27T04:35:47.476Z,93925.00
2022-08-27T04:38:15.331Z,93919.00
2022-08-27T04:41:17.358Z,93921.00
2022-08-27T04:43:53.404Z,93920.00
2022-08-27T04:46:29.064Z,93922.00
2022-08-27T04:48:58.753Z,93925.00
2022-08-27T04:51:28.999Z,93920.00
2022-08-27T04:53:57.283Z,93929.00
2022-08-27T04:56:31.135Z,93926.00
2022-08-27T04:59:00.625Z,93930.00
2022-08-27T05:01:29.809Z,93929.00
2022-08-27T05:03:58.585Z,93938.00
2022-08-27T05:06:30.984Z,93940.00
2022-08-27T05:08:57.964Z,93940.00
2022-08-27T05:11:32.341Z,93942.00
2022-08-27T05:13:59.383Z,93941.00
2022-08-27T05:16:26.352Z,93948.00
2022-08-27T05:18:53.846Z,93946.00
2022-08-27T05:21:32.045Z,93945.00
2022-08-27T05:24:01.192Z,93943.00
2022-08-27T05:26:29.865Z,93945.00
2022-08-27T05:29:02.457Z,93940.00
2022-08-27T05:31:30.153Z,93944.00
2022-08-27T05:34:00.291Z,93941.00
2022-08-27T05:36:33.171Z,93927.00
2022-08-27T05:39:05.836Z,93938.00
2022-08-27T05:41:39.523Z,93945.00
2022-08-27T05:44:40.220Z,93938.00
2022-08-27T05:46:59.032Z,93942.00
2022-08-27T05:49:26.044Z,93951.00
2022-08-27T05:51:53.037Z,93948.00
2022-08-27T05:54:20.127Z,93939.00
2022-08-27T05:56:54.267Z,93946.00
2022-08-27T05:59:44.474Z,93943.00
2022-08-27T06:02:14.265Z,93944.00
2022-08-27T06:04:41.356Z,93950.00
2022-08-27T06:07:10.600Z,93945.00
2022-08-27T06:09:40.186Z,93947.00
2022-08-27T06:12:12.100Z,93941.00
2022-08-27T06:14:39.034Z,93943.00
2022-08-27T06:17:08.667Z,93935.00
2022-08-27T06:19:36.395Z,93935.00
2022-08-27T06:22:10.350Z,93942.00
2022-08-27T06:24:42.573Z,93942.00
2022-08-27T06:27:13.842Z,93940.00
2022-08-27T06:29:41.148Z,93948.00
2022-08-27T06:32:09.592Z,93940.00
2022-08-27T06:34:39.577Z,93949.00
2022-08-27T06:37:09.709Z,93949.00
2022-08-27T06:39:41.760Z,93943.00
2022-08-27T06:42:12.801Z,93938.00
2022-08-27T06:44:42.281Z,93947.00
2022-08-27T06:47:11.872Z,93953.00
2022-08-27T06:49:46.420Z,93946.00
2022-08-27T06:52:15.227Z,93946.00
2022-08-27T06:54:46.607Z,93948.00
2022-08-27T06:57:13.603Z,93956.00
2022-08-27T06:59:40.877Z,93958.00
2022-08-27T07:02:13.018Z,93959.00
2022-08-27T07:04:39.960Z,93957.00
2022-08-27T07:07:10.486Z,93954.00
2022-08-27T07:09:37.395Z,93955.00
2022-08-27T07:12:05.708Z,93956.00
2022-08-27T07:14:37.694Z,93952.00
2022-08-27T07:17:10.751Z,93953.00
2022-08-27T07:19:41.152Z,93951.00
2022-08-27T07:22:08.503Z,93958.00
2022-08-27T07:24:38.229Z,93964.00
2022-08-27T07:27:06.170Z,93961.00
2022-08-27T07:29:33.205Z,93959.00
2022-08-27T07:32:00.407Z,93963.00
2022-08-27T07:34:27.809Z,93963.00
2022-08-27T07:36:56.789Z,93964.00
2022-08-27T07:39:23.737Z,93972.00
2022-08-27T07:42:09.144Z,93967.00
2022-08-27T07:44:37.022Z,93967.00
2022-08-27T07:47:06.931Z,93968.00
2022-08-27T07:49:35.358Z,93967.00
2022-08-27T07:52:04.011Z,93974.00
2022-08-27T07:54:31.143Z,93967.00
2022-08-27T07:57:00.517Z,93971.00
2022-08-27T07:59:27.861Z,93975.00
2022-08-27T08:01:57.325Z,93974.00
2022-08-27T08:04:24.866Z,93971.00
2022-08-27T08:06:55.678Z,93968.00
2022-08-27T08:09:24.828Z,93972.00
2022-08-27T08:11:53.407Z,93973.00
2022-08-27T08:14:22.995Z,93971.00
2022-08-27T08:16:50.311Z,93974.00
2022-08-27T08:19:17.626Z,93970.00
2022-08-27T08:21:44.588Z,93968.00
2022-08-27T08:24:11.643Z,93977.00
2022-08-27T08:26:38.621Z,93978.00
2022-08-27T08:29:05.655Z,93978.00
2022-08-27T08:31:37.669Z,93984.00
2022-08-27T08:34:04.602Z,93991.00
2022-08-27T08:36:32.561Z,93987.00
2022-08-27T08:38:59.646Z,93989.00
2022-08-27T08:41:49.938Z,93986.00
2022-08-27T08:44:32.359Z,93980.00
2022-08-27T08:47:04.894Z,93985.00
2022-08-27T08:49:54.980Z,93993.00
2022-08-27T08:52:30.950Z,93992.00
2022-08-27T08:55:40.405Z,93992.00
2022-08-27T08:58:29.908Z,93991.00
2022-08-27T09:01:00.558Z,93989.00
2022-08-27T09:03:29.918Z,93992.00
2022-08-27T09:06:16.965Z,93994.00
2022-08-27T09:08:47.693Z,94004.00
2022-08-27T09:11:59.544Z,93998.00
2022-08-27T09:14:59.490Z,93995.00
2022-08-27T09:17:27.965Z,93996.00
2022-08-27T09:19:56.578Z,93993.00
2022-08-27T09:22:54.479Z,93996.00
2022-08-27T09:25:28.462Z,93992.00
2022-08-27T09:28:02.334Z,93992.00
2022-08-27T09:30:43.244Z,93998.00
2022-08-27T09:33:10.992Z,94003.00
2022-08-27T09:35:47.909Z,94007.00
2022-08-27T09:38:31.169Z,94010.00
2022-08-27T09:41:17.946Z,94001.00
2022-08-27T09:43:45.172Z,93997.00
2022-08-27T09:46:24.323Z,93987.00
2022-08-27T09:48:53.274Z,93987.00
2022-08-27T09:51:27.750Z,93981.00
2022-08-27T09:54:02.050Z,93987.00
2022-08-27T09:56:39.128Z,93990.00
2022-08-27T09:59:07.672Z,93991.00
2022-08-27T10:01:54.453Z,93986.00
2022-08-27T10:04:51.038Z,93985.00
2022-08-27T10:07:56.966Z,93982.00
2022-08-27T10:10:46.596Z,93983.00
2022-08-27T10:13:26.874Z,93990.00
2022-08-27T10:16:19.155Z,93984.00
2022-08-27T10:18:52.356Z,93984.00
2022-08-27T10:21:30.128Z,93978.00
2022-08-27T10:24:05.133Z,93982.00
2022-08-27T10:26:41.687Z,93982.00
2022-08-27T10:29:23.743Z,93981.00
2022-08-27T10:31:59.625Z,93983.00
2022-08-27T10:35:20.968Z,93986.00
2022-08-27T10:38:34.209Z,93974.00
2022-08-27T10:41:17.771Z,93978.00
2022-08-27T10:44:25.819Z,93984.00
2022-08-27T10:47:07.681Z,93983.00
2022-08-27T10:50:01.254Z,93985.00
2022-08-27T10:52:51.807Z,93975.00
2022-08-27T10:55:29.109Z,93975.00
2022-08-27T10:58:40.176Z,93977.00
2022-08-27T11:01:38.319Z,93977.00
2022-08-27T11:04:26.529Z,93977.00
2022-08-27T11:07:08.718Z,93975.00
2022-08-27T11:09:51.589Z,93975.00
2022-08-27T11:12:37.201Z,93973.00
2022-08-27T11:15:30.146Z,93970.00
2022-08-27T11:18:07.780Z,93972.00
2022-08-27T11:20:58.081Z,93959.00
2022-08-27T11:23:40.623Z,93959.00
2022-08-27T11:26:10.154Z,93951.00
2022-08-27T11:28:45.870Z,93948.00
2022-08-27T11:31:50.029Z,93949.00
2022-08-27T11:34:31.572Z,93947.00
2022-08-27T11:37:13.631Z,93950.00
2022-08-27T11:39:58.238Z,93952.00
2022-08-27T11:42:28.318Z,93942.00
2022-08-27T11:45:06.468Z,93935.00
2022-08-27T11:47:33.418Z,93930.00
2022-08-27T11:50:18.177Z,93929.00
2022-08-27T11:52:58.126Z,93929.00
2022-08-27T11:55:36.474Z,93936.00
2022-08-27T11:58:30.315Z,93938.00
2022-08-27T12:01:04.745Z,93932.00
2022-08-27T12:03:37.159Z,93930.00
2022-08-27T12:06:19.904Z,93929.00
2022-08-27T12:08:50.225Z,93934.00
2022-08-27T12:12:01.525Z,93934.00
2022-08-27T12:14:32.298Z,93938.00
2022-08-27T12:17:35.577Z,93942.00
2022-08-27T12:20:52.878Z,93946.00
2022-08-27T12:24:07.946Z,93941.00
2022-08-27T12:26:39.231Z,93944.00
2022-08-27T12:29:31.242Z,93941.00
2022-08-27T12:32:51.153Z,93947.00
2022-08-27T12:35:42.831Z,93936.00
2022-08-27T12:38:42.586Z,93944.00
2022-08-27T12:41:14.172Z,93947.00
2022-08-27T12:43:43.929Z,93948.00
2022-08-27T12:46:17.583Z,93954.00
2022-08-27T12:48:54.049Z,93945.00
2022-08-27T12:51:36.251Z,93951.00
2022-08-27T12:54:30.121Z,93960.00
2022-08-27T12:57:24.377Z,93959.00
2022-08-27T13:00:24.158Z,93962.00
2022-08-27T13:03:18.042Z,93960.00
2022-08-27T13:05:56.792Z,93959.00
2022-08-27T13:08:32.878Z,93952.00
2022-08-27T13:11:26.020Z,93947.00
2022-08-27T13:14:10.635Z,93950.00
2022-08-27T13:16:46.772Z,93946.00
2022-08-27T13:19:32.150Z,93948.00
2022-08-27T13:22:01.441Z,93951.00
2022-08-27T13:24:32.523Z,93950.00
2022-08-27T13:27:02.821Z,93964.00
2022-08-27T13:29:29.910Z,93962.00
2022-08-27T13:31:59.939Z,93971.00
2022-08-27T13:34:35.444Z,93972.00
2022-08-27T13:37:24.209Z,93973.00
2022-08-27T13:39:55.235Z,93980.00
2022-08-27T13:42:23.440Z,93975.00
2022-08-27T13:44:53.224Z,93971.00
2022-08-27T13:47:28.476Z,93977.00
2022-08-27T13:50:25.270Z,93971.00
2022-08-27T13:53:12.847Z,93982.00
2022-08-27T13:55:49.133Z,93985.00
2022-08-27T13:58:28.697Z,93992.00
2022-08-27T14:01:11.675Z,93997.00
2022-08-27T14:04:00.061Z,94001.00
2022-08-27T14:06:35.528Z,94007.00
2022-08-27T14:09:32.232Z,94010.00
2022-08-27T14:12:06.913Z,94007.00
2022-08-27T14:14:41.885Z,94017.00
2022-08-27T14:17:29.705Z,94021.00
2022-08-27T14:20:04.417Z,94022.00
2022-08-27T14:22:39.243Z,94021.00
2022-08-27T14:25:06.875Z,94024.00
2022-08-27T14:27:39.880Z,94023.00
2022-08-27T14:30:20.919Z,94037.00
2022-08-27T14:32:58.502Z,94023.00
2022-08-27T14:35:32.379Z,94018.00
2022-08-27T14:38:10.418Z,94024.00
2022-08-27T14:40:40.200Z,94019.00
2022-08-27T14:43:08.006Z,94012.00
2022-08-27T14:45:35.329Z,94013.00
2022-08-27T14:48:02.623Z,94014.00
2022-08-27T14:50:29.598Z,94008.00
2022-08-27T14:52:59.512Z,94004.00
2022-08-27T14:55:28.625Z,94005.00
2022-08-27T14:57:57.696Z,94012.00
2022-08-27T15:00:25.454Z,94003.00
2022-08-27T15:02:52.563Z,94007.00
2022-08-27T15:05:24.789Z,94024.00
2022-08-27T15:07:58.153Z,94020.00
2022-08-27T15:10:25.739Z,94020.00
2022-08-27T15:12:54.538Z,94018.00
2022-08-27T15:15:26.309Z,94020.00
2022-08-27T15:17:53.234Z,94021.00
2022-08-27T15:20:20.638Z,94014.00
2022-08-27T15:22:52.162Z,94015.00
2022-08-27T15:25:20.317Z,94014.00
2022-08-27T15:27:47.595Z,94015.00
2022-08-27T15:30:23.042Z,94009.00
2022-08-27T15:32:49.981Z,94000.00
2022-08-27T15:35:25.845Z,94000.00
2022-08-27T15:37:55.365Z,93995.00
2022-08-27T15:40:24.026Z,94001.00
2022-08-27T15:42:59.076Z,93994.00
2022-08-27T15:45:27.653Z,93992.00
2022-08-27T15:47:58.323Z,93993.00
2022-08-27T15:50:26.978Z,93987.00
2022-08-27T15:53:01.367Z,93986.00
2022-08-27T15:55:34.347Z,93984.00
2022-08-27T15:58:04.602Z,93980.00
2022-08-27T16:00:34.317Z,93973.00
2022-08-27T16:03:05.362Z,93976.00
2022-08-27T16:05:38.303Z,93975.00
2022-08-27T16:08:08.898Z,93972.00
2022-08-27T16:10:38.361Z,93973.00
2022-08-27T16:13:05.400Z,93975.00
2022-08-27T16:15:37.000Z,93974.00
2022-08-27T16:18:04.507Z,93973.00
2022-08-27T16:20:31.837Z,93974.00
2022-08-27T16:23:01.088Z,93980.00
2022-08-27T16:25:32.736Z,93961.00
2022-08-27T16:28:01.984Z,93971.00
2022-08-27T16:30:32.267Z,93972.00
2022-08-27T16:32:59.370Z,93970.00
2022-08-27T16:35:29.578Z,93969.00
2022-08-27T16:37:57.326Z,93965.00
2022-08-27T16:40:24.653Z,93966.00
2022-08-27T16:42:52.843Z,93958.00
2022-08-27T16:45:23.018Z,93958.00
2022-08-27T16:48:10.102Z,93956.00
2022-08-27T16:50:38.143Z,93956.00
2022-08-27T16:53:13.168Z,93955.00
2022-08-27T16:55:43.877Z,93949.00
2022-08-27T16:58:26.899Z,93959.00
2022-08-27T17:00:58.578Z,93954.00
2022-08-27T17:03:31.554Z,93949.00
2022-08-27T17:06:01.462Z,93951.00
2022-08-27T17:08:30.224Z,93948.00
2022-08-27T17:10:57.506Z,93959.00
2022-08-27T17:13:35.269Z,93964.00
2022-08-27T17:16:03.515Z,93969.00
2022-08-27T17:18:31.664Z,93972.00
2022-08-27T17:21:00.673Z,93977.00
2022-08-27T17:23:41.375Z,93971.00
2022-08-27T17:26:11.524Z,93972.00
2022-08-27T17:28:41.911Z,93974.00
2022-08-27T17:31:15.063Z,93979.00
2022-08-27T17:33:47.651Z,93986.00
2022-08-27T17:36:19.595Z,93974.00
2022-08-27T17:38:49.371Z,93974.00
2022-08-27T17:41:40.887Z,93979.00
2022-08-27T17:44:19.313Z,93997.00
2022-08-27T17:46:48.730Z,93993.00
2022-08-27T17:49:16.846Z,93991.00
2022-08-27T17:51:45.903Z,93995.00
2022-08-27T17:54:44.842Z,93998.00
2022-08-27T17:57:22.370Z,93995.00
2022-08-27T17:59:53.592Z,93991.00
2022-08-27T18:02:23.579Z,93994.00
2022-08-27T18:04:50.654Z,94007.00
2022-08-27T18:07:20.713Z,94006.00
2022-08-27T18:09:51.246Z,94009.00
2022-08-27T18:12:25.517Z,94011.00
2022-08-27T18:15:07.870Z,94011.00
2022-08-27T18:17:36.850Z,94022.00
2022-08-27T18:20:09.324Z,94017.00
2022-08-27T18:22:40.656Z,94025.00
2022-08-27T18:25:08.595Z,94026.00
2022-08-27T18:27:39.601Z,94017.00
2022-08-27T18:30:11.948Z,94017.00
2022-08-27T18:32:40.479Z,94020.00
2022-08-27T18:35:32.260Z,94028.00
2022-08-27T18:38:02.231Z,94026.00
2022-08-27T18:40:36.113Z,94030.00
2022-08-27T18:43:06.002Z,94023.00
2022-08-27T18:45:39.397Z,94031.00
2022-08-27T18:48:19.714Z,94037.00
2022-08-27T18:50:53.491Z,94036.00
2022-08-27T18:53:24.749Z,94053.00
2022-08-27T18:55:52.043Z,94053.00
2022-08-27T18:58:21.455Z,94056.00
2022-08-27T19:00:59.884Z,94048.00
2022-08-27T19:03:31.283Z,94053.00
2022-08-27T19:05:58.181Z,94058.00
2022-08-27T19:08:28.160Z,94065.00
2022-08-27T19:10:57.786Z,94062.00
2022-08-27T19:13:24.708Z,94072.00
2022-08-27T19:16:19.851Z,94083.00
2022-08-27T19:18:49.477Z,94078.00
2022-08-27T19:21:16.449Z,94078.00
2022-08-27T19:23:43.480Z,94079.00
2022-08-27T19:26:20.890Z,94082.00
2022-08-27T19:28:47.928Z,94087.00
2022-08-27T19:31:17.493Z,94082.00
2022-08-27T19:33:47.629Z,94076.00
2022-08-27T19:36:18.652Z,94073.00
2022-08-27T19:38:49.900Z,94074.00
2022-08-27T19:41:17.809Z,94091.00
2022-08-27T19:43:47.673Z,94086.00
2022-08-27T19:46:19.003Z,94090.00
2022-08-27T19:48:48.052Z,94093.00
2022-08-27T19:51:18.189Z,94089.00
2022-08-27T19:53:50.193Z,94099.00
2022-08-27T19:56:19.711Z,94087.00
2022-08-27T19:58:47.033Z,94096.00
2022-08-27T20:01:14.139Z,94087.00
2022-08-27T20:03:41.352Z,94087.00
2022-08-27T20:06:10.891Z,94087.00
2022-08-27T20:08:37.862Z,94083.00
2022-08-27T20:11:04.802Z,94089.00
2022-08-27T20:13:33.341Z,94089.00
2022-08-27T20:16:02.784Z,94085.00
2022-08-27T20:18:35.309Z,94088.00
2022-08-27T20:21:06.137Z,94084.00
2022-08-27T20:23:33.299Z,94079.00
2022-08-27T20:26:02.797Z,94073.00
2022-08-27T20:28:45.274Z,94085.00
2022-08-27T20:31:15.418Z,94079.00
2022-08-27T20:33:42.363Z,94080.00
2022-08-27T20:36:12.290Z,94073.00
2022-08-27T20:38:41.433Z,94080.00
2022-08-27T20:41:08.529Z,94086.00
2022-08-27T20:43:37.990Z,94081.00
2022-08-27T20:46:05.072Z,94075.00
2022-08-27T20:48:32.132Z,94089.00
2022-08-27T20:50:59.067Z,94087.00
2022-08-27T20:53:28.689Z,94083.00
2022-08-27T20:55:56.719Z,94081.00
2022-08-27T20:58:54.341Z,94078.00
2022-08-27T21:01:21.357Z,94070.00
2022-08-27T21:03:48.478Z,94085.00
2022-08-27T21:06:22.929Z,94089.00
2022-08-27T21:08:57.286Z,94085.00
2022-08-27T21:11:24.380Z,94096.00
2022-08-27T21:13:56.437Z,94092.00
2022-08-27T21:16:25.283Z,94086.00
2022-08-27T21:18:54.357Z,94094.00
2022-08-27T21:21:24.409Z,94097.00
2022-08-27T21:23:51.474Z,94089.00
2022-08-27T21:26:20.086Z,94090.00
2022-08-27T21:28:47.025Z,94099.00
2022-08-27T21:31:14.002Z,94094.00
2022-08-27T21:33:41.057Z,94094.00
2022-08-27T21:36:11.978Z,94098.00
2022-08-27T21:38:42.084Z,94092.00
2022-08-27T21:41:12.103Z,94090.00
2022-08-27T21:43:42.060Z,94089.00
2022-08-27T21:46:09.042Z,94093.00
2022-08-27T21:48:36.350Z,94091.00
2022-08-27T21:51:15.535Z,94093.00
2022-08-27T21:53:51.500Z,94085.00
2022-08-27T21:56:18.783Z,94088.00
2022-08-27T21:58:45.741Z,94091.00
2022-08-27T22:01:13.406Z,94093.00
2022-08-27T22:03:49.323Z,94094.00
2022-08-27T22:06:16.775Z,94093.00
2022-08-27T22:08:43.785Z,94091.00
2022-08-27T22:11:12.136Z,94096.00
2022-08-27T22:13:41.759Z,94094.00
2022-08-27T22:16:11.592Z,94099.00
2022-08-27T22:18:40.681Z,94091.00
2022-08-27T22:21:07.678Z,94092.00
2022-08-27T22:23:34.739Z,94088.00
2022-08-27T22:26:04.397Z,94088.00
2022-08-27T22:28:31.277Z,94086.00
2022-08-27T22:30:58.242Z,94085.00
2022-08-27T22:33:25.160Z,94091.00
2022-08-27T22:35:52.129Z,94090.00
2022-08-27T22:38:19.074Z,94091.00
2022-08-27T22:40:48.425Z,94081.00
2022-08-27T22:43:17.389Z,94088.00
2022-08-27T22:45:44.303Z,94089.00
2022-08-27T22:48:11.279Z,94090.00
2022-08-27T22:50:38.531Z,94094.00
2022-08-27T22:53:07.735Z,94099.00
2022-08-27T22:55:35.409Z,94090.00
2022-08-27T22:58:02.439Z,94078.00
2022-08-27T23:00:35.590Z,94088.00
2022-08-27T23:03:06.292Z,94085.00
2022-08-27T23:05:41.816Z,94079.00
2022-08-27T23:08:12.126Z,94074.00
2022-08-27T23:10:40.122Z,94071.00
2022-08-27T23:13:11.762Z,94084.00
2022-08-27T23:15:40.014Z,94074.00
2022-08-27T23:18:07.122Z,94081.00
2022-08-27T23:20:36.842Z,94082.00
2022-08-27T23:23:03.970Z,94079.00
2022-08-27T23:25:51.957Z,94077.00
2022-08-27T23:28:21.790Z,94076.00
2022-08-27T23:30:49.809Z,94077.00
2022-08-27T23:33:20.015Z,94081.00
2022-08-27T23:35:51.486Z,94081.00
2022-08-27T23:38:21.503Z,94083.00
2022-08-27T23:40:52.282Z,94089.00
2022-08-27T23:43:22.651Z,94082.00
2022-08-27T23:45:50.320Z,94086.00
2022-08-27T23:48:18.258Z,94091.00
2022-08-27T23:50:48.419Z,94086.00
2022-08-27T23:53:15.389Z,94083.00
2022-08-27T23:55:42.414Z,94091.00
2022-08-27T23:58:12.731Z,94083.00
